createdAt,value
2023-01-19T00:01:40.295Z,43.29
2023-01-19T00:04:08.030Z,42.78
2023-01-19T00:06:35.448Z,42.48
2023-01-19T00:09:03.264Z,43.33
2023-01-19T00:11:30.890Z,43.02
2023-01-19T00:13:59.033Z,43.44
2023-01-19T00:16:26.349Z,43.07
2023-01-19T00:18:54.062Z,43.59
2023-01-19T00:21:22.469Z,44.18
2023-01-19T00:23:52.747Z,44.36
2023-01-19T00:26:22.413Z,44.77
2023-01-19T00:28:50.543Z,44.61
2023-01-19T00:31:20.808Z,44.63
2023-01-19T00:33:49.492Z,44.25
2023-01-19T00:36:16.925Z,43.94
2023-01-19T00:38:44.261Z,43.50
2023-01-19T00:41:11.918Z,43.96
2023-01-19T00:43:39.223Z,43.78
2023-01-19T00:46:06.782Z,42.87
2023-01-19T00:48:34.506Z,42.52
2023-01-19T00:51:01.769Z,42.74
2023-01-19T00:53:32.671Z,41.91
2023-01-19T00:56:00.277Z,42.62
2023-01-19T00:58:27.625Z,41.86
2023-01-19T01:00:57.991Z,41.65
2023-01-19T01:03:28.292Z,41.23
2023-01-19T01:05:55.727Z,40.91
2023-01-19T01:08:23.137Z,41.79
2023-01-19T01:10:51.502Z,41.46
2023-01-19T01:13:20.571Z,41.13
2023-01-19T01:15:53.297Z,41.07
2023-01-19T01:18:21.115Z,40.84
2023-01-19T01:20:48.829Z,40.14
2023-01-19T01:23:16.735Z,41.04
2023-01-19T01:25:46.808Z,40.76
2023-01-19T01:28:14.041Z,41.08
2023-01-19T01:30:43.559Z,40.68
2023-01-19T01:33:11.964Z,39.88
2023-01-19T01:35:39.866Z,40.07
2023-01-19T01:38:08.076Z,40.46
2023-01-19T01:40:35.257Z,39.76
2023-01-19T01:43:02.979Z,40.14
2023-01-19T01:45:35.332Z,40.08
2023-01-19T01:48:10.606Z,40.65
2023-01-19T01:51:03.747Z,40.44
2023-01-19T01:53:34.233Z,40.77
2023-01-19T01:56:06.990Z,39.92
2023-01-19T01:58:35.936Z,39.84
2023-01-19T02:01:22.742Z,39.38
2023-01-19T02:03:50.478Z,39.99
2023-01-19T02:06:18.019Z,40.52
2023-01-19T02:09:10.940Z,39.53
2023-01-19T02:11:57.440Z,39.67
2023-01-19T02:14:24.711Z,39.63
2023-01-19T02:16:52.663Z,39.66
2023-01-19T02:19:30.487Z,39.74
2023-01-19T02:22:50.587Z,38.96
2023-01-19T02:25:20.514Z,39.42
2023-01-19T02:27:50.819Z,40.13
2023-01-19T02:30:19.005Z,40.35
2023-01-19T02:32:46.399Z,40.31
2023-01-19T02:35:15.360Z,40.01
2023-01-19T02:37:44.535Z,40.70
2023-01-19T02:40:13.326Z,41.15
2023-01-19T02:42:46.638Z,40.43
2023-01-19T02:45:15.560Z,40.44
2023-01-19T02:47:52.147Z,40.67
2023-01-19T02:50:37.690Z,41.06
2023-01-19T02:53:11.838Z,40.82
2023-01-19T02:55:40.549Z,41.80
2023-01-19T02:58:11.993Z,42.00
2023-01-19T03:01:00.712Z,40.47
2023-01-19T03:03:33.220Z,41.96
2023-01-19T03:06:18.591Z,41.33
2023-01-19T03:09:15.769Z,40.59
2023-01-19T03:11:50.499Z,41.48
2023-01-19T03:14:23.718Z,42.56
2023-01-19T03:16:57.073Z,41.74
2023-01-19T03:19:32.140Z,42.97
2023-01-19T03:22:03.974Z,43.85
2023-01-19T03:24:37.107Z,43.94
2023-01-19T03:27:14.504Z,44.14
2023-01-19T03:29:47.576Z,43.90
2023-01-19T03:32:18.062Z,43.32
2023-01-19T03:34:49.554Z,44.43
2023-01-19T03:37:19.635Z,45.75
2023-01-19T03:39:47.437Z,46.75
2023-01-19T03:42:17.303Z,46.36
2023-01-19T03:44:46.604Z,46.70
2023-01-19T03:47:15.229Z,46.55
2023-01-19T03:49:45.882Z,47.32
2023-01-19T03:52:14.399Z,46.68
2023-01-19T03:54:42.013Z,46.80
2023-01-19T03:57:10.297Z,47.64
2023-01-19T03:59:37.920Z,48.26
2023-01-19T04:02:05.303Z,48.62
2023-01-19T04:04:33.103Z,48.53
2023-01-19T04:07:01.491Z,49.30
2023-01-19T04:09:28.879Z,49.53
2023-01-19T04:11:57.435Z,49.41
2023-01-19T04:14:24.828Z,50.05
2023-01-19T04:16:52.331Z,50.24
2023-01-19T04:19:19.889Z,50.75
2023-01-19T04:21:50.981Z,50.69
2023-01-19T04:24:18.889Z,50.30
2023-01-19T04:26:46.624Z,51.31
2023-01-19T04:29:14.499Z,51.23
2023-01-19T04:31:42.045Z,53.81
2023-01-19T04:34:10.466Z,53.84
2023-01-19T04:36:37.798Z,53.06
2023-01-19T04:39:05.316Z,53.53
2023-01-19T04:41:33.095Z,54.09
2023-01-19T04:44:00.721Z,53.42
2023-01-19T04:46:28.218Z,54.08
2023-01-19T04:48:55.896Z,54.30
2023-01-19T04:51:23.286Z,54.37
2023-01-19T04:53:50.560Z,54.71
2023-01-19T04:56:18.227Z,55.23
2023-01-19T04:58:45.543Z,56.10
2023-01-19T05:01:13.173Z,55.71
2023-01-19T05:03:40.942Z,56.37
2023-01-19T05:06:10.897Z,57.53
2023-01-19T05:08:38.495Z,56.69
2023-01-19T05:11:06.208Z,56.22
2023-01-19T05:13:33.712Z,57.30
2023-01-19T05:16:01.745Z,57.76
2023-01-19T05:18:30.073Z,57.32
2023-01-19T05:20:57.468Z,57.35
2023-01-19T05:23:24.839Z,58.03
2023-01-19T05:25:52.635Z,58.97
2023-01-19T05:28:21.357Z,59.43
2023-01-19T05:30:52.102Z,60.65
2023-01-19T05:33:20.146Z,60.66
2023-01-19T05:35:50.620Z,60.25
2023-01-19T05:38:23.340Z,61.43
2023-01-19T05:40:58.309Z,61.31
2023-01-19T05:43:25.946Z,62.19
2023-01-19T05:45:53.360Z,62.61
2023-01-19T05:48:21.083Z,62.18
2023-01-19T05:50:49.775Z,62.31
2023-01-19T05:53:17.353Z,63.48
2023-01-19T05:55:45.124Z,63.93
2023-01-19T05:58:12.464Z,64.07
2023-01-19T06:00:39.803Z,63.27
2023-01-19T06:03:07.541Z,63.90
2023-01-19T06:05:35.667Z,64.09
2023-01-19T06:08:03.183Z,63.72
2023-01-19T06:10:31.059Z,62.43
2023-01-19T06:12:59.101Z,63.52
2023-01-19T06:15:26.723Z,62.97
2023-01-19T06:17:54.379Z,64.92
2023-01-19T06:20:21.882Z,65.02
2023-01-19T06:22:49.271Z,64.13
2023-01-19T06:25:17.056Z,63.94
2023-01-19T06:27:45.569Z,65.17
2023-01-19T06:30:13.868Z,66.01
2023-01-19T06:32:41.674Z,66.31
2023-01-19T06:35:09.465Z,64.55
2023-01-19T06:37:36.920Z,65.78
2023-01-19T06:40:05.323Z,66.34
2023-01-19T06:42:32.854Z,66.68
2023-01-19T06:45:00.308Z,65.79
2023-01-19T06:47:28.110Z,65.04
2023-01-19T06:49:55.390Z,64.16
2023-01-19T06:52:22.835Z,64.34
2023-01-19T06:54:50.482Z,63.73
2023-01-19T06:57:17.920Z,63.66
2023-01-19T06:59:45.323Z,62.94
2023-01-19T07:02:26.357Z,62.76
2023-01-19T07:04:56.569Z,60.64
2023-01-19T07:07:24.437Z,59.34
2023-01-19T07:09:53.984Z,59.62
2023-01-19T07:12:22.762Z,57.54
2023-01-19T07:14:50.499Z,53.50
2023-01-19T07:17:17.836Z,52.11
2023-01-19T07:19:46.036Z,52.02
2023-01-19T07:22:13.840Z,47.87
2023-01-19T07:24:41.603Z,52.00
2023-01-19T07:27:09.010Z,52.58
2023-01-19T07:29:36.635Z,51.31
2023-01-19T07:32:04.570Z,50.34
2023-01-19T07:34:32.061Z,43.40
2023-01-19T07:36:59.838Z,40.82
2023-01-19T07:39:27.234Z,39.38
2023-01-19T07:41:54.612Z,37.44
2023-01-19T07:44:23.776Z,34.60
2023-01-19T07:46:51.402Z,35.78
2023-01-19T07:49:18.844Z,33.02
2023-01-19T07:51:47.021Z,33.44
2023-01-19T07:54:14.337Z,33.52
2023-01-19T07:56:41.647Z,31.94
2023-01-19T07:59:11.012Z,34.40
2023-01-19T08:01:38.429Z,32.32
2023-01-19T08:04:06.566Z,31.58
2023-01-19T08:06:37.233Z,31.64
2023-01-19T08:09:08.653Z,31.00
2023-01-19T08:11:36.857Z,29.58
2023-01-19T08:14:05.770Z,30.28
2023-01-19T08:16:35.588Z,28.89
2023-01-19T08:19:03.943Z,28.00
2023-01-19T08:21:33.479Z,28.54
2023-01-19T08:24:00.896Z,27.89
2023-01-19T08:26:34.657Z,28.21
2023-01-19T08:29:05.507Z,28.29
2023-01-19T08:31:33.349Z,27.95
2023-01-19T08:34:00.939Z,28.59
2023-01-19T08:36:29.082Z,28.08
2023-01-19T08:38:56.827Z,28.58
2023-01-19T08:41:24.250Z,27.77
2023-01-19T08:43:51.650Z,27.86
2023-01-19T08:46:22.092Z,27.24
2023-01-19T08:48:50.588Z,28.15
2023-01-19T08:51:19.071Z,28.10
2023-01-19T08:53:47.324Z,27.51
2023-01-19T08:56:15.358Z,26.88
2023-01-19T08:58:45.681Z,26.67
2023-01-19T09:01:17.712Z,26.74
2023-01-19T09:03:45.077Z,26.86
2023-01-19T09:06:16.582Z,26.74
2023-01-19T09:08:44.347Z,27.50
2023-01-19T09:11:13.711Z,27.31
2023-01-19T09:13:41.849Z,26.57
2023-01-19T09:16:11.638Z,27.16
2023-01-19T09:18:39.621Z,27.05
2023-01-19T09:21:08.463Z,26.86
2023-01-19T09:23:36.840Z,26.57
2023-01-19T09:26:06.519Z,26.85
2023-01-19T09:28:34.419Z,26.97
2023-01-19T09:31:06.869Z,26.89
2023-01-19T09:33:35.880Z,27.28
2023-01-19T09:36:03.490Z,26.75
2023-01-19T09:38:33.050Z,26.33
2023-01-19T09:41:01.594Z,26.68
2023-01-19T09:43:41.386Z,27.01
2023-01-19T09:46:35.784Z,26.90
2023-01-19T09:49:12.930Z,26.79
2023-01-19T09:51:46.335Z,27.10
2023-01-19T09:54:19.539Z,26.75
2023-01-19T09:56:52.115Z,26.65
2023-01-19T09:59:29.029Z,26.50
2023-01-19T10:02:31.915Z,26.86
2023-01-19T10:05:23.277Z,26.85
2023-01-19T10:08:09.793Z,27.30
2023-01-19T10:10:40.671Z,27.77
2023-01-19T10:13:47.197Z,28.26
2023-01-19T10:16:40.033Z,28.05
2023-01-19T10:19:26.226Z,27.89
2023-01-19T10:21:58.136Z,27.38
2023-01-19T10:24:37.620Z,27.53
2023-01-19T10:27:13.771Z,27.93
2023-01-19T10:29:41.371Z,27.49
2023-01-19T10:32:26.252Z,27.60
2023-01-19T10:34:55.000Z,27.84
2023-01-19T10:37:30.211Z,27.76
2023-01-19T10:40:09.903Z,27.65
2023-01-19T10:42:40.578Z,27.47
2023-01-19T10:45:18.971Z,29.01
2023-01-19T10:47:47.416Z,29.31
2023-01-19T10:50:31.329Z,29.06
2023-01-19T10:53:01.715Z,28.70
2023-01-19T10:55:40.675Z,28.62
2023-01-19T10:58:31.185Z,28.67
2023-01-19T11:01:23.339Z,29.22
2023-01-19T11:03:53.582Z,31.66
2023-01-19T11:06:22.504Z,33.55
2023-01-19T11:08:52.012Z,34.53
2023-01-19T11:11:21.775Z,33.87
2023-01-19T11:14:07.393Z,33.00
2023-01-19T11:16:38.088Z,33.21
2023-01-19T11:19:07.723Z,33.52
2023-01-19T11:21:35.464Z,33.89
2023-01-19T11:24:09.190Z,33.75
2023-01-19T11:26:49.430Z,33.68
2023-01-19T11:29:23.126Z,33.08
2023-01-19T11:31:52.554Z,33.14
2023-01-19T11:34:22.813Z,32.86
2023-01-19T11:37:06.027Z,32.80
2023-01-19T11:39:47.922Z,31.27
2023-01-19T11:42:18.080Z,31.91
2023-01-19T11:45:06.733Z,32.07
2023-01-19T11:47:41.644Z,33.13
2023-01-19T11:50:15.669Z,33.24
2023-01-19T11:52:46.188Z,33.00
2023-01-19T11:55:32.189Z,33.41
2023-01-19T11:58:00.057Z,32.94
2023-01-19T12:00:36.315Z,34.77
2023-01-19T12:03:07.015Z,36.20
2023-01-19T12:05:37.468Z,36.26
2023-01-19T12:08:11.636Z,35.40
2023-01-19T12:10:44.995Z,36.13
2023-01-19T12:13:23.903Z,34.60
2023-01-19T12:15:58.096Z,33.99
2023-01-19T12:18:30.594Z,34.81
2023-01-19T12:20:59.052Z,35.14
2023-01-19T12:24:11.683Z,35.09
2023-01-19T12:26:51.517Z,34.39
2023-01-19T12:29:24.966Z,35.75
2023-01-19T12:32:14.194Z,36.44
2023-01-19T12:34:50.203Z,36.56
2023-01-19T12:37:26.425Z,36.83
2023-01-19T12:39:56.541Z,36.38
2023-01-19T12:42:24.983Z,36.70
2023-01-19T12:45:07.073Z,37.00
2023-01-19T12:47:35.484Z,37.69
2023-01-19T12:50:17.193Z,37.94
2023-01-19T12:52:51.835Z,38.59
2023-01-19T12:55:34.802Z,38.96
2023-01-19T12:58:18.068Z,39.40
2023-01-19T13:00:48.511Z,38.89
2023-01-19T13:03:19.412Z,39.08
2023-01-19T13:05:55.504Z,37.67
2023-01-19T13:08:30.647Z,36.95
2023-01-19T13:11:05.185Z,36.95
2023-01-19T13:13:40.271Z,36.85
2023-01-19T13:16:20.087Z,37.06
2023-01-19T13:19:13.572Z,36.72
2023-01-19T13:21:47.185Z,37.01
2023-01-19T13:24:17.786Z,36.58
2023-01-19T13:26:54.951Z,36.55
2023-01-19T13:29:36.675Z,36.75
2023-01-19T13:32:17.777Z,36.86
2023-01-19T13:34:51.884Z,37.14
2023-01-19T13:37:23.342Z,37.12
2023-01-19T13:39:53.897Z,37.73
2023-01-19T13:42:28.230Z,38.40
2023-01-19T13:44:59.962Z,38.65
2023-01-19T13:47:49.725Z,38.59
2023-01-19T13:50:30.689Z,38.88
2023-01-19T13:52:59.496Z,39.52
2023-01-19T13:55:28.189Z,39.88
2023-01-19T13:57:56.331Z,39.88
2023-01-19T14:00:33.590Z,40.31
2023-01-19T14:03:02.631Z,40.64
2023-01-19T14:05:38.272Z,40.67
2023-01-19T14:08:09.155Z,41.01
2023-01-19T14:10:39.088Z,41.06
2023-01-19T14:13:15.045Z,41.27
2023-01-19T14:15:43.410Z,41.66
2023-01-19T14:18:19.755Z,41.68
2023-01-19T14:21:03.860Z,42.09
2023-01-19T14:23:38.115Z,42.25
2023-01-19T14:26:06.341Z,41.93
2023-01-19T14:28:44.348Z,41.85
2023-01-19T14:31:21.162Z,41.97
2023-01-19T14:33:53.437Z,43.24
2023-01-19T14:36:33.900Z,43.81
2023-01-19T14:39:02.552Z,44.54
2023-01-19T14:41:30.312Z,44.97
2023-01-19T14:43:59.834Z,44.88
2023-01-19T14:46:28.299Z,45.04
2023-01-19T14:49:05.893Z,45.02
2023-01-19T14:51:33.794Z,44.67
2023-01-19T14:54:02.567Z,44.66
2023-01-19T14:56:33.071Z,44.81
2023-01-19T14:59:02.499Z,45.03
2023-01-19T15:01:31.358Z,44.77
2023-01-19T15:03:58.952Z,45.04
2023-01-19T15:06:27.052Z,45.15
2023-01-19T15:08:54.872Z,45.67
2023-01-19T15:11:34.300Z,46.13
2023-01-19T15:14:02.688Z,46.51
2023-01-19T15:16:33.234Z,46.87
2023-01-19T15:19:00.916Z,47.00
2023-01-19T15:21:29.059Z,47.40
2023-01-19T15:23:58.387Z,48.04
2023-01-19T15:26:27.359Z,49.16
2023-01-19T15:28:56.494Z,49.98
2023-01-19T15:31:26.221Z,50.37
2023-01-19T15:33:53.913Z,50.70
2023-01-19T15:36:24.427Z,51.36
2023-01-19T15:38:52.022Z,51.85
2023-01-19T15:41:25.358Z,52.33
2023-01-19T15:43:53.618Z,52.35
2023-01-19T15:46:22.315Z,53.32
2023-01-19T15:48:50.776Z,53.74
2023-01-19T15:51:21.727Z,53.76
2023-01-19T15:53:49.824Z,53.81
2023-01-19T15:56:23.662Z,53.65
2023-01-19T15:58:52.184Z,53.23
2023-01-19T16:01:24.972Z,53.18
2023-01-19T16:03:52.956Z,52.76
2023-01-19T16:06:20.545Z,53.36
2023-01-19T16:08:47.897Z,53.98
2023-01-19T16:11:18.581Z,54.94
2023-01-19T16:13:46.563Z,53.61
2023-01-19T16:16:18.999Z,53.53
2023-01-19T16:18:46.873Z,53.66
2023-01-19T16:21:14.411Z,52.91
2023-01-19T16:23:42.133Z,57.76
2023-01-19T16:26:34.611Z,59.17
2023-01-19T16:29:10.017Z,58.72
2023-01-19T16:31:42.696Z,56.83
2023-01-19T16:34:10.443Z,61.16
2023-01-19T16:36:42.848Z,61.87
2023-01-19T16:39:14.820Z,64.87
2023-01-19T16:41:43.929Z,65.07
2023-01-19T16:44:15.904Z,64.98
2023-01-19T16:46:46.005Z,65.40
2023-01-19T16:49:15.327Z,65.84
2023-01-19T16:51:43.644Z,66.72
2023-01-19T16:54:16.811Z,66.19
2023-01-19T16:56:44.441Z,65.97
2023-01-19T16:59:14.171Z,67.94
2023-01-19T17:01:42.472Z,70.04
2023-01-19T17:04:09.953Z,69.84
2023-01-19T17:06:37.924Z,70.90
2023-01-19T17:09:06.522Z,70.13
2023-01-19T17:11:35.134Z,70.29
2023-01-19T17:14:06.333Z,70.42
2023-01-19T17:16:35.948Z,69.48
2023-01-19T17:19:06.504Z,69.35
2023-01-19T17:21:34.805Z,70.78
2023-01-19T17:24:02.277Z,75.95
2023-01-19T17:26:31.306Z,74.93
2023-01-19T17:29:03.780Z,74.24
2023-01-19T17:31:32.471Z,72.35
2023-01-19T17:34:00.368Z,71.90
2023-01-19T17:36:29.548Z,65.95
2023-01-19T17:39:00.283Z,64.94
2023-01-19T17:41:32.815Z,64.94
2023-01-19T17:44:01.686Z,66.24
2023-01-19T17:46:29.917Z,66.25
2023-01-19T17:48:59.500Z,65.22
2023-01-19T17:51:28.764Z,65.79
2023-01-19T17:53:57.755Z,64.47
2023-01-19T17:56:29.972Z,65.38
2023-01-19T17:58:58.756Z,65.89
2023-01-19T18:01:31.944Z,66.38
2023-01-19T18:04:00.849Z,66.48
2023-01-19T18:06:28.340Z,66.15
2023-01-19T18:08:57.183Z,65.85
2023-01-19T18:11:25.677Z,64.90
2023-01-19T18:13:53.455Z,65.00
2023-01-19T18:16:23.976Z,64.57
2023-01-19T18:18:53.880Z,65.17
2023-01-19T18:21:22.495Z,65.28
2023-01-19T18:23:51.433Z,66.40
2023-01-19T18:26:21.304Z,66.62
2023-01-19T18:28:51.643Z,67.99
2023-01-19T18:31:19.586Z,69.71
2023-01-19T18:33:50.102Z,72.36
2023-01-19T18:36:18.487Z,72.12
2023-01-19T18:38:46.959Z,72.13
2023-01-19T18:41:16.479Z,73.59
2023-01-19T18:43:44.158Z,72.74
2023-01-19T18:46:11.977Z,73.10
2023-01-19T18:48:39.853Z,72.77
2023-01-19T18:51:08.959Z,74.58
2023-01-19T18:53:37.341Z,75.20
2023-01-19T18:56:05.943Z,76.16
2023-01-19T18:58:36.587Z,77.30
2023-01-19T19:01:04.971Z,78.50
2023-01-19T19:03:32.554Z,77.20
2023-01-19T19:06:04.012Z,78.86
2023-01-19T19:08:33.125Z,79.39
2023-01-19T19:11:00.533Z,78.36
2023-01-19T19:13:27.956Z,80.98
2023-01-19T19:16:03.309Z,82.54
2023-01-19T19:18:31.217Z,83.29
2023-01-19T19:20:58.985Z,83.70
2023-01-19T19:23:26.513Z,83.42
2023-01-19T19:25:53.997Z,82.80
2023-01-19T19:28:22.040Z,82.80
2023-01-19T19:30:52.704Z,82.88
2023-01-19T19:33:20.065Z,84.26
2023-01-19T19:35:48.264Z,85.31
2023-01-19T19:38:15.694Z,84.52
2023-01-19T19:40:43.266Z,85.11
2023-01-19T19:43:10.933Z,86.97
2023-01-19T19:45:38.864Z,87.96
2023-01-19T19:48:06.362Z,87.90
2023-01-19T19:50:37.199Z,87.08
2023-01-19T19:53:04.513Z,84.88
2023-01-19T19:55:31.927Z,87.71
2023-01-19T19:57:59.622Z,87.54
2023-01-19T20:00:26.926Z,88.42
2023-01-19T20:02:55.375Z,89.05
2023-01-19T20:05:22.743Z,88.72
2023-01-19T20:07:50.085Z,87.79
2023-01-19T20:10:18.209Z,87.98
2023-01-19T20:12:45.843Z,86.48
2023-01-19T20:15:13.206Z,85.21
2023-01-19T20:17:41.063Z,86.44
2023-01-19T20:20:09.258Z,85.28
2023-01-19T20:22:36.558Z,85.61
2023-01-19T20:25:04.567Z,85.76
2023-01-19T20:27:32.063Z,87.14
2023-01-19T20:30:00.521Z,87.72
2023-01-19T20:32:28.255Z,88.60
2023-01-19T20:34:55.602Z,89.44
2023-01-19T20:37:23.031Z,89.48
2023-01-19T20:39:50.745Z,90.50
2023-01-19T20:42:18.342Z,90.53
2023-01-19T20:44:45.925Z,89.43
2023-01-19T20:47:13.634Z,89.75
2023-01-19T20:49:41.335Z,90.96
2023-01-19T20:52:08.937Z,88.63
2023-01-19T20:54:36.722Z,89.30
2023-01-19T20:57:04.119Z,91.66
2023-01-19T20:59:34.267Z,92.77
2023-01-19T21:02:02.205Z,92.22
2023-01-19T21:04:29.643Z,90.47
2023-01-19T21:06:57.035Z,89.80
2023-01-19T21:09:24.795Z,89.20
2023-01-19T21:11:52.224Z,93.41
2023-01-19T21:14:19.540Z,94.41
2023-01-19T21:16:47.379Z,95.61
2023-01-19T21:19:14.884Z,94.50
2023-01-19T21:21:42.297Z,93.99
2023-01-19T21:24:11.007Z,93.22
2023-01-19T21:26:38.623Z,93.45
2023-01-19T21:29:06.012Z,94.31
2023-01-19T21:31:33.752Z,93.79
2023-01-19T21:34:01.187Z,93.29
2023-01-19T21:36:28.667Z,92.96
2023-01-19T21:39:00.786Z,92.04
2023-01-19T21:41:30.254Z,91.65
2023-01-19T21:44:00.154Z,92.20
2023-01-19T21:46:29.705Z,94.42
2023-01-19T21:49:01.837Z,94.23
2023-01-19T21:51:33.713Z,92.85
2023-01-19T21:54:02.834Z,91.94
2023-01-19T21:56:31.304Z,90.74
2023-01-19T21:59:03.067Z,93.30
2023-01-19T22:01:34.858Z,91.89
2023-01-19T22:04:02.840Z,90.23
2023-01-19T22:06:30.272Z,91.61
2023-01-19T22:08:58.502Z,93.29
2023-01-19T22:11:26.753Z,95.35
2023-01-19T22:13:54.943Z,93.40
2023-01-19T22:16:24.121Z,93.73
2023-01-19T22:18:54.457Z,95.47
2023-01-19T22:21:24.383Z,94.67
2023-01-19T22:23:54.340Z,93.01
2023-01-19T22:26:22.211Z,93.86
2023-01-19T22:28:55.069Z,93.91
2023-01-19T22:31:24.272Z,94.08
2023-01-19T22:33:52.380Z,92.66
2023-01-19T22:36:22.121Z,94.29
2023-01-19T22:38:55.116Z,94.66
2023-01-19T22:41:31.500Z,94.03
2023-01-19T22:44:01.543Z,94.45
2023-01-19T22:46:31.871Z,94.01
2023-01-19T22:49:00.396Z,94.04
2023-01-19T22:51:30.293Z,93.61
2023-01-19T22:53:58.819Z,92.68
2023-01-19T22:56:28.661Z,91.04
2023-01-19T22:58:56.466Z,93.14
2023-01-19T23:01:33.853Z,92.51
2023-01-19T23:04:02.697Z,92.59
2023-01-19T23:06:33.066Z,94.25
2023-01-19T23:09:02.682Z,94.31
2023-01-19T23:11:35.953Z,93.90
2023-01-19T23:14:04.656Z,94.65
2023-01-19T23:16:32.214Z,94.19
2023-01-19T23:18:59.955Z,94.08
2023-01-19T23:21:29.590Z,93.92
2023-01-19T23:24:02.260Z,93.72
2023-01-19T23:26:30.957Z,93.06
2023-01-19T23:29:00.875Z,92.47
2023-01-19T23:31:30.657Z,90.68
2023-01-19T23:34:02.091Z,91.45
2023-01-19T23:36:32.250Z,92.95
2023-01-19T23:39:03.124Z,93.71
2023-01-19T23:41:33.360Z,93.61
2023-01-19T23:44:01.007Z,94.11
2023-01-19T23:46:28.774Z,94.31
2023-01-19T23:48:56.570Z,93.65
2023-01-19T23:51:27.723Z,92.34
2023-01-19T23:53:55.181Z,94.33
2023-01-19T23:56:24.381Z,94.08
2023-01-19T23:58:57.764Z,92.98
